createdAt,value
2022-12-13T00:00:15.316Z,6.03
2022-12-13T00:03:37.316Z,7.40
2022-12-13T00:06:39.798Z,7.00
2022-12-13T00:09:43.118Z,6.90
2022-12-13T00:12:45.279Z,6.57
2022-12-13T00:15:56.875Z,5.93
2022-12-13T00:19:00.926Z,5.73
2022-12-13T00:22:02.940Z,5.60
2022-12-13T00:25:05.427Z,6.17
2022-12-13T00:28:07.786Z,6.90
2022-12-13T00:31:44.650Z,6.00
2022-12-13T00:34:32.574Z,6.07
2022-12-13T00:37:34.820Z,6.20
2022-12-13T00:40:36.796Z,6.30
2022-12-13T00:43:39.540Z,5.73
2022-12-13T00:46:41.977Z,6.00
2022-12-13T00:49:44.125Z,5.63
2022-12-13T00:52:46.018Z,5.63
2022-12-13T00:55:48.189Z,5.17
2022-12-13T00:58:52.324Z,5.50
2022-12-13T01:01:54.759Z,5.83
2022-12-13T01:04:56.689Z,5.37
2022-12-13T01:07:58.913Z,5.00
2022-12-13T01:11:00.863Z,5.33
2022-12-13T01:14:03.257Z,5.60
2022-12-13T01:17:06.160Z,5.23
2022-12-13T01:20:09.447Z,5.47
2022-12-13T01:23:11.910Z,4.90
2022-12-13T01:26:17.818Z,4.93
2022-12-13T01:29:21.206Z,5.47
2022-12-13T01:32:23.371Z,4.97
2022-12-13T01:35:25.278Z,4.90
2022-12-13T01:38:27.465Z,5.03
2022-12-13T01:41:30.021Z,5.10
2022-12-13T01:45:02.952Z,4.40
2022-12-13T01:48:08.768Z,4.50
2022-12-13T01:51:14.878Z,4.80
2022-12-13T01:54:21.800Z,4.63
2022-12-13T01:57:25.098Z,4.80
2022-12-13T02:00:27.731Z,4.87
2022-12-13T02:03:30.083Z,4.60
2022-12-13T02:06:39.918Z,4.50
2022-12-13T02:09:42.778Z,4.90
2022-12-13T02:12:45.289Z,4.43
2022-12-13T02:16:31.077Z,4.63
2022-12-13T02:20:03.090Z,4.90
2022-12-13T02:23:26.581Z,4.43
2022-12-13T02:26:28.497Z,4.43
2022-12-13T02:29:45.673Z,4.40
2022-12-13T02:33:00.537Z,4.10
2022-12-13T02:36:43.230Z,4.27
2022-12-13T02:39:54.576Z,4.00
2022-12-13T02:43:02.432Z,4.20
2022-12-13T02:46:06.379Z,4.33
2022-12-13T02:49:10.778Z,4.37
2022-12-13T02:52:15.435Z,4.03
2022-12-13T02:55:28.338Z,4.17
2022-12-13T02:58:35.766Z,4.23
2022-12-13T03:02:10.868Z,3.90
2022-12-13T03:05:48.117Z,4.03
2022-12-13T03:09:11.901Z,4.00
2022-12-13T03:13:08.719Z,4.40
2022-12-13T03:16:23.871Z,3.73
2022-12-13T03:19:26.392Z,3.80
2022-12-13T03:22:28.614Z,3.83
2022-12-13T03:25:32.542Z,4.10
2022-12-13T03:28:35.690Z,3.93
2022-12-13T03:31:37.754Z,3.67
2022-12-13T03:34:44.866Z,3.70
2022-12-13T03:37:48.233Z,3.30
2022-12-13T03:40:57.489Z,3.40
2022-12-13T03:44:05.104Z,3.53
2022-12-13T03:47:07.283Z,4.23
2022-12-13T03:50:26.879Z,3.90
2022-12-13T03:53:34.180Z,4.00
2022-12-13T03:56:36.426Z,3.60
2022-12-13T03:59:39.045Z,4.07
2022-12-13T04:02:41.046Z,3.90
2022-12-13T04:05:43.491Z,4.17
2022-12-13T04:08:45.471Z,3.93
2022-12-13T04:12:06.439Z,4.37
2022-12-13T04:15:08.906Z,3.97
2022-12-13T04:18:11.145Z,4.53
2022-12-13T04:21:13.102Z,4.50
2022-12-13T04:24:16.370Z,4.63
2022-12-13T04:27:18.317Z,4.03
2022-12-13T04:30:20.646Z,4.33
2022-12-13T04:33:23.433Z,4.23
2022-12-13T04:36:30.985Z,4.17
2022-12-13T04:39:34.993Z,3.90
2022-12-13T04:42:37.191Z,4.30
2022-12-13T04:45:39.169Z,4.70
2022-12-13T04:48:41.458Z,4.73
2022-12-13T04:51:43.339Z,4.40
2022-12-13T04:54:56.092Z,5.00
2022-12-13T04:57:58.208Z,5.43
2022-12-13T05:01:00.478Z,5.20
2022-12-13T05:04:04.184Z,5.50
2022-12-13T05:07:06.394Z,5.13
2022-12-13T05:10:08.669Z,4.70
2022-12-13T05:13:10.889Z,4.60
2022-12-13T05:16:13.529Z,5.67
2022-12-13T05:19:15.740Z,4.93
2022-12-13T05:22:20.650Z,5.30
2022-12-13T05:25:24.959Z,5.87
2022-12-13T05:28:29.063Z,6.40
2022-12-13T05:31:31.459Z,5.70
2022-12-13T05:34:33.433Z,5.13
2022-12-13T05:37:35.794Z,4.83
2022-12-13T05:40:37.827Z,5.27
2022-12-13T05:43:42.926Z,5.07
2022-12-13T05:46:45.626Z,5.27
2022-12-13T05:49:47.896Z,5.10
2022-12-13T05:52:50.025Z,5.47
2022-12-13T05:55:52.198Z,5.63
2022-12-13T05:58:54.368Z,5.80
2022-12-13T06:01:57.082Z,5.73
2022-12-13T06:04:59.021Z,5.50
2022-12-13T06:08:01.639Z,5.47
2022-12-13T06:11:12.489Z,5.73
2022-12-13T06:14:33.877Z,5.60
2022-12-13T06:17:36.884Z,5.77
2022-12-13T06:20:39.053Z,5.60
2022-12-13T06:23:41.238Z,5.60
2022-12-13T06:26:45.816Z,6.30
2022-12-13T06:29:48.090Z,5.27
2022-12-13T06:32:50.488Z,5.60
2022-12-13T06:35:55.579Z,5.50
2022-12-13T06:39:06.083Z,5.40
2022-12-13T06:42:21.452Z,8.60
2022-12-13T06:45:25.656Z,9.43
2022-12-13T06:48:27.742Z,7.93
2022-12-13T06:51:32.400Z,13.27
2022-12-13T06:54:35.440Z,9.40
2022-12-13T06:57:37.610Z,7.83
2022-12-13T07:00:48.988Z,21.40
2022-12-13T07:03:51.749Z,16.87
2022-12-13T07:06:53.971Z,5.27
2022-12-13T07:09:56.418Z,5.03
2022-12-13T07:12:58.366Z,4.67
2022-12-13T07:16:01.390Z,4.60
2022-12-13T07:19:04.390Z,8.70
2022-12-13T07:22:25.475Z,5.70
2022-12-13T07:25:31.013Z,6.57
2022-12-13T07:28:38.219Z,4.50
2022-12-13T07:31:40.533Z,4.93
2022-12-13T07:34:42.877Z,4.70
2022-12-13T07:37:45.303Z,4.90
2022-12-13T07:40:47.645Z,5.13
2022-12-13T07:43:55.666Z,4.67
2022-12-13T07:46:58.249Z,5.00
2022-12-13T07:50:01.603Z,4.17
2022-12-13T07:53:08.441Z,4.77
2022-12-13T07:56:12.044Z,5.00
2022-12-13T07:59:15.852Z,4.70
2022-12-13T08:02:30.551Z,4.70
2022-12-13T08:05:38.635Z,4.30
2022-12-13T08:08:43.377Z,4.13
2022-12-13T08:11:45.610Z,4.43
2022-12-13T08:14:47.501Z,4.17
2022-12-13T08:18:00.940Z,4.73
2022-12-13T08:21:14.080Z,4.40
2022-12-13T08:24:29.195Z,4.33
2022-12-13T08:27:32.184Z,4.57
2022-12-13T08:30:34.341Z,4.93
2022-12-13T08:33:36.761Z,4.30
2022-12-13T08:36:38.967Z,4.53
2022-12-13T08:39:40.887Z,3.93
2022-12-13T08:42:45.640Z,4.00
2022-12-13T08:45:50.130Z,3.67
2022-12-13T08:48:54.103Z,4.10
2022-12-13T08:51:56.112Z,3.70
2022-12-13T08:54:58.368Z,3.50
2022-12-13T08:58:08.294Z,4.23
2022-12-13T09:01:11.371Z,4.23
2022-12-13T09:04:13.257Z,3.53
2022-12-13T09:07:15.480Z,4.70
2022-12-13T09:10:27.223Z,5.57
2022-12-13T09:13:43.413Z,4.70
2022-12-13T09:16:50.858Z,3.97
2022-12-13T09:19:58.073Z,3.73
2022-12-13T09:23:04.352Z,4.47
2022-12-13T09:26:07.169Z,3.87
2022-12-13T09:29:10.840Z,4.60
2022-12-13T09:32:13.986Z,4.50
2022-12-13T09:35:16.019Z,4.43
2022-12-13T09:38:18.550Z,4.47
2022-12-13T09:41:41.343Z,4.50
2022-12-13T09:45:02.243Z,5.23
2022-12-13T09:48:13.427Z,5.77
2022-12-13T09:51:28.268Z,4.73
2022-12-13T09:54:33.988Z,4.73
2022-12-13T09:57:36.681Z,4.63
2022-12-13T10:00:39.527Z,4.50
2022-12-13T10:03:46.159Z,4.93
2022-12-13T10:06:59.867Z,5.17
2022-12-13T10:10:04.915Z,5.27
2022-12-13T10:13:15.396Z,5.30
2022-12-13T10:16:49.394Z,5.77
2022-12-13T10:19:51.761Z,5.47
2022-12-13T10:23:31.163Z,5.87
2022-12-13T10:26:23.869Z,5.80
2022-12-13T10:29:27.252Z,6.37
2022-12-13T10:32:37.867Z,6.27
2022-12-13T10:35:41.424Z,5.70
2022-12-13T10:38:45.947Z,6.07
2022-12-13T10:41:48.235Z,5.50
2022-12-13T10:45:08.125Z,4.97
2022-12-13T10:48:22.244Z,5.30
2022-12-13T10:51:24.364Z,4.87
2022-12-13T10:54:38.681Z,4.70
2022-12-13T10:57:53.273Z,5.00
2022-12-13T11:01:28.625Z,6.90
2022-12-13T11:04:32.461Z,5.43
2022-12-13T11:07:34.673Z,5.27
2022-12-13T11:10:37.891Z,5.50
2022-12-13T11:13:52.940Z,5.37
2022-12-13T11:17:05.931Z,5.13
2022-12-13T11:20:19.529Z,5.53
2022-12-13T11:23:35.301Z,6.03
2022-12-13T11:26:42.814Z,5.80
2022-12-13T11:30:02.926Z,5.40
2022-12-13T11:33:48.596Z,5.50
2022-12-13T11:37:20.901Z,5.87
2022-12-13T11:40:40.262Z,6.43
2022-12-13T11:43:59.801Z,6.83
2022-12-13T11:47:07.230Z,6.90
2022-12-13T11:50:33.164Z,8.90
2022-12-13T11:53:57.632Z,9.80
2022-12-13T11:57:05.453Z,6.77
2022-12-13T12:00:17.739Z,10.47
2022-12-13T12:03:52.005Z,12.77
2022-12-13T12:07:24.575Z,19.27
2022-12-13T12:10:49.368Z,13.87
2022-12-13T12:14:10.118Z,12.60
2022-12-13T12:17:14.894Z,10.57
2022-12-13T12:20:25.192Z,8.83
2022-12-13T12:23:46.413Z,9.63
2022-12-13T12:27:22.712Z,7.10
2022-12-13T12:31:08.516Z,8.50
2022-12-13T12:34:19.030Z,7.73
2022-12-13T12:37:32.379Z,10.53
2022-12-13T12:41:15.008Z,10.37
2022-12-13T12:44:38.999Z,16.03
2022-12-13T12:51:54.888Z,11.27
2022-12-13T12:55:31.741Z,8.97
2022-12-13T12:59:12.515Z,7.10
2022-12-13T13:02:27.463Z,8.07
2022-12-13T13:05:32.784Z,9.57
2022-12-13T13:08:46.729Z,7.80
2022-12-13T13:11:51.192Z,9.43
2022-12-13T13:15:00.693Z,7.60
2022-12-13T13:18:02.630Z,7.53
2022-12-13T13:21:23.460Z,7.03
2022-12-13T13:24:27.419Z,8.63
2022-12-13T13:27:30.733Z,8.23
2022-12-13T13:30:33.710Z,7.47
2022-12-13T13:33:50.293Z,7.57
2022-12-13T13:36:56.426Z,10.60
2022-12-13T13:40:29.788Z,6.83
2022-12-13T13:43:33.447Z,7.07
2022-12-13T13:47:14.961Z,6.93
2022-12-13T13:50:57.796Z,6.07
2022-12-13T13:54:28.233Z,7.13
2022-12-13T14:01:13.955Z,6.20
2022-12-13T14:04:38.190Z,7.17
2022-12-13T14:07:49.648Z,9.87
2022-12-13T14:11:04.320Z,11.07
2022-12-13T14:14:39.097Z,13.77
2022-12-13T14:17:47.239Z,9.67
2022-12-13T14:21:14.073Z,8.13
2022-12-13T14:24:31.264Z,8.80
2022-12-13T14:28:02.317Z,10.00
2022-12-13T14:31:04.479Z,7.73
2022-12-13T14:34:07.939Z,7.13
2022-12-13T14:37:23.796Z,6.90
2022-12-13T14:40:28.104Z,7.50
2022-12-13T14:43:34.917Z,7.83
2022-12-13T14:46:37.260Z,8.30
2022-12-13T14:49:48.720Z,7.73
2022-12-13T14:52:51.995Z,8.70
2022-12-13T14:56:27.660Z,8.73
2022-12-13T14:59:33.261Z,13.37
2022-12-13T15:02:35.249Z,13.13
2022-12-13T15:05:50.468Z,10.67
2022-12-13T15:08:54.002Z,10.47
2022-12-13T15:12:15.095Z,12.10
2022-12-13T15:15:31.468Z,11.07
2022-12-13T15:18:34.715Z,11.27
2022-12-13T15:21:37.825Z,10.00
2022-12-13T15:24:41.652Z,11.73
2022-12-13T15:27:48.541Z,12.73
2022-12-13T15:30:51.281Z,12.17
2022-12-13T15:33:53.522Z,15.53
2022-12-13T15:37:28.046Z,12.93
2022-12-13T15:40:31.849Z,11.70
2022-12-13T15:43:43.472Z,11.60
2022-12-13T15:46:49.936Z,11.13
2022-12-13T15:49:59.786Z,11.27
2022-12-13T15:53:28.465Z,11.77
2022-12-13T15:56:36.767Z,12.80
2022-12-13T15:59:38.770Z,12.87
2022-12-13T16:02:53.130Z,13.20
2022-12-13T16:05:57.160Z,13.50
2022-12-13T16:09:05.150Z,13.97
2022-12-13T16:12:07.571Z,14.93
2022-12-13T16:15:29.309Z,14.70
2022-12-13T16:18:41.504Z,14.50
2022-12-13T16:21:43.796Z,15.33
2022-12-13T16:24:45.658Z,16.60
2022-12-13T16:27:48.935Z,16.03
2022-12-13T16:30:53.784Z,16.30
2022-12-13T16:33:56.061Z,17.10
2022-12-13T16:36:59.675Z,18.67
2022-12-13T16:40:30.296Z,15.27
2022-12-13T16:43:35.217Z,14.90
2022-12-13T16:47:12.766Z,18.33
2022-12-13T16:50:09.686Z,15.43
2022-12-13T16:53:17.185Z,12.60
2022-12-13T16:56:21.840Z,13.50
2022-12-13T16:59:26.511Z,13.30
2022-12-13T17:02:28.461Z,13.90
2022-12-13T17:05:31.285Z,13.40
2022-12-13T17:08:33.920Z,12.57
2022-12-13T17:11:37.312Z,13.37
2022-12-13T17:14:39.382Z,12.33
2022-12-13T17:17:44.127Z,11.87
2022-12-13T17:20:47.008Z,11.93
2022-12-13T17:24:02.815Z,10.80
2022-12-13T17:27:04.730Z,13.20
2022-12-13T17:30:09.194Z,16.13
2022-12-13T17:33:13.232Z,16.07
2022-12-13T17:36:16.027Z,19.13
2022-12-13T17:39:18.016Z,22.27
2022-12-13T17:42:20.350Z,23.27
2022-12-13T17:45:33.971Z,25.30
2022-12-13T17:49:11.019Z,24.10
2022-12-13T17:52:19.077Z,23.77
2022-12-13T17:59:12.219Z,25.90
2022-12-13T18:02:41.465Z,31.03
2022-12-13T18:06:24.328Z,32.83
2022-12-13T18:09:41.821Z,34.70
2022-12-13T18:12:50.016Z,29.67
2022-12-13T18:15:55.397Z,28.70
2022-12-13T18:23:32.846Z,29.17
2022-12-13T18:26:53.614Z,29.77
2022-12-13T18:29:56.007Z,29.63
2022-12-13T18:32:58.731Z,30.43
2022-12-13T18:36:01.197Z,32.27
2022-12-13T18:39:04.370Z,32.10
2022-12-13T18:42:07.287Z,31.17
2022-12-13T18:45:09.769Z,32.67
2022-12-13T18:48:12.719Z,35.13
2022-12-13T18:51:14.736Z,33.33
2022-12-13T18:54:16.935Z,34.70
2022-12-13T18:57:19.501Z,36.57
2022-12-13T19:00:21.808Z,36.43
2022-12-13T19:03:25.478Z,34.17
2022-12-13T19:06:28.593Z,32.60
2022-12-13T19:09:35.558Z,32.27
2022-12-13T19:12:40.550Z,28.80
2022-12-13T19:15:42.542Z,30.70
2022-12-13T19:18:44.877Z,31.10
2022-12-13T19:21:46.937Z,32.60
2022-12-13T19:24:49.256Z,33.57
2022-12-13T19:27:51.797Z,34.23
2022-12-13T19:30:54.004Z,32.93
2022-12-13T19:33:56.716Z,33.23
2022-12-13T19:37:04.486Z,33.23
2022-12-13T19:40:09.777Z,32.93
2022-12-13T19:43:13.211Z,32.03
2022-12-13T19:46:17.336Z,34.53
2022-12-13T19:49:19.589Z,34.07
2022-12-13T19:52:21.441Z,32.63
2022-12-13T19:55:23.935Z,34.03
2022-12-13T19:58:26.690Z,32.67
2022-12-13T20:01:28.971Z,32.40
2022-12-13T20:04:31.124Z,36.93
2022-12-13T20:07:33.348Z,43.90
2022-12-13T20:10:36.596Z,53.23
2022-12-13T20:13:41.352Z,51.30
2022-12-13T20:16:43.713Z,56.87
2022-12-13T20:19:50.916Z,59.50
2022-12-13T20:22:54.771Z,61.17
2022-12-13T20:26:06.440Z,53.80
2022-12-13T20:29:08.735Z,50.50
2022-12-13T20:32:10.985Z,48.83
2022-12-13T20:35:13.030Z,47.00
2022-12-13T20:38:15.269Z,50.60
2022-12-13T20:41:17.156Z,46.83
2022-12-13T20:44:19.613Z,47.53
2022-12-13T20:47:21.496Z,47.07
2022-12-13T20:50:23.763Z,40.83
2022-12-13T20:53:25.869Z,49.10
2022-12-13T20:56:31.761Z,54.80
2022-12-13T20:59:33.718Z,48.03
2022-12-13T21:02:42.203Z,39.10
2022-12-13T21:05:47.669Z,39.20
2022-12-13T21:08:52.808Z,35.33
2022-12-13T21:11:58.460Z,35.03
2022-12-13T21:15:04.152Z,33.97
2022-12-13T21:18:09.120Z,37.43
2022-12-13T21:21:11.728Z,35.20
2022-12-13T21:24:18.388Z,34.40
2022-12-13T21:27:25.079Z,33.47
2022-12-13T21:30:27.019Z,35.47
2022-12-13T21:33:30.121Z,32.03
2022-12-13T21:36:34.667Z,35.60
2022-12-13T21:39:41.650Z,42.33
2022-12-13T21:42:45.736Z,41.60
2022-12-13T21:45:49.831Z,43.53
2022-12-13T21:48:53.041Z,47.13
2022-12-13T21:51:58.877Z,45.97
2022-12-13T21:55:30.047Z,43.77
2022-12-13T21:58:45.853Z,60.50
2022-12-13T22:02:13.494Z,66.33
2022-12-13T22:05:16.010Z,62.00
2022-12-13T22:08:18.565Z,59.13
2022-12-13T22:11:22.691Z,56.97
2022-12-13T22:14:25.114Z,58.03
2022-12-13T22:17:35.260Z,55.37
2022-12-13T22:20:38.153Z,52.90
2022-12-13T22:23:41.804Z,51.40
2022-12-13T22:26:44.725Z,50.77
2022-12-13T22:29:46.871Z,53.50
2022-12-13T22:32:48.990Z,55.40
2022-12-13T22:35:51.557Z,46.13
2022-12-13T22:38:53.540Z,46.67
2022-12-13T22:41:55.761Z,43.50
2022-12-13T22:44:57.664Z,41.33
2022-12-13T22:47:59.793Z,39.57
2022-12-13T22:51:03.357Z,39.70
2022-12-13T22:54:05.712Z,39.33
2022-12-13T22:57:07.837Z,38.83
2022-12-13T23:00:10.593Z,43.00
2022-12-13T23:03:12.636Z,42.60
2022-12-13T23:06:19.014Z,40.10
2022-12-13T23:09:21.170Z,41.47
2022-12-13T23:12:42.080Z,41.70
2022-12-13T23:15:49.169Z,43.73
2022-12-13T23:19:01.349Z,39.13
2022-12-13T23:22:12.797Z,36.03
2022-12-13T23:25:15.515Z,39.47
2022-12-13T23:28:17.741Z,40.90
2022-12-13T23:31:20.720Z,39.27
2022-12-13T23:34:22.643Z,37.97
2022-12-13T23:37:24.893Z,36.27
2022-12-13T23:40:26.832Z,34.70
2022-12-13T23:43:33.673Z,32.20
2022-12-13T23:46:36.354Z,32.50
2022-12-13T23:49:38.524Z,32.30
2022-12-13T23:52:40.438Z,30.43
2022-12-13T23:55:42.726Z,31.33
2022-12-13T23:58:51.103Z,29.60
